Time;durP1;ratioP1;P1;durP2;ratioP2;P2;SDS_P1;SDS_P2;PMS_P1;PMS_P2;Temp;Humidity;BMP_temperature;BMP_pressure;BME280_temperature;BME280_humidity;BME280_pressure;Samples;Min_cycle;Max_cycle;Signal;HPM_P1;HPM_P2
2022/04/30 00:01:53;;;;;;;;;;;;;;;;;;5095823;28;19916;-77
2022/04/30 00:04:18;;;;;;;;;;;;;;;;;;5094957;28;19920;-77
2022/04/30 00:06:44;;;;;;;;;;;;;;;;;;5096012;28;19927;-76
2022/04/30 00:09:09;;;;;;;;;;;;;;;;;;5094165;28;19966;-76
2022/04/30 00:11:34;;;;;;;;;;;;;;;;;;5095878;28;19912;-77
2022/04/30 00:14:00;;;;;;;;;;;;;;;;;;5096112;28;19920;-76
2022/04/30 00:16:26;;;;;;;;;;;;;;;;;;5095935;28;20021;-76
2022/04/30 00:18:51;;;;;;;;;;;;;;;;;;5094861;28;19916;-76
2022/04/30 00:21:17;;;;;;;;;;;;;;;;;;5095524;28;19938;-76
2022/04/30 00:23:42;;;;;;;;;;;;;;;;;;5095697;28;19963;-76
2022/04/30 00:26:07;;;;;;;;;;;;;;;;;;5095242;28;19927;-76
2022/04/30 00:28:33;;;;;;;;;;;;;;;;;;5095634;28;19960;-76
2022/04/30 00:30:59;;;;;;;;;;;;;;;;;;5095626;28;19916;-75
2022/04/30 00:33:24;;;;;;;;;;;;;;;;;;5095277;28;19916;-76
2022/04/30 00:35:50;;;;;;;;;;;;;;;;;;5092954;28;19965;-76
2022/04/30 00:38:15;;;;;;;;;;;;;;;;;;5095357;28;19923;-75
2022/04/30 00:40:44;;;;;;;;;;;;;;;;;;5095356;28;19916;-75
2022/04/30 00:43:09;;;;;;;;;;;;;;;;;;5095387;28;20012;-75
2022/04/30 00:45:34;;;;;;;;;;;;;;;;;;5095192;28;20315;-75
2022/04/30 00:48:02;;;;;;;;;;;;;;;;;;5093938;28;20365;-75
2022/04/30 00:50:29;;;;;;;;;;;;;;;;;;5094949;28;19916;-75
2022/04/30 00:52:56;;;;;;;;;;;;;;;;;;5094992;28;20011;-75
2022/04/30 00:55:22;;;;;;;;;;;;;;;;;;5094795;28;20283;-75
2022/04/30 00:57:49;;;;;;;;;;;;;;;;;;5094886;28;19916;-74
2022/04/30 01:00:14;;;;;;;;;;;;;;;;;;5095144;28;19923;-74
2022/04/30 01:02:59;;;;;;;;;;;;;;;;;;5093559;28;20017;-74
2022/04/30 01:05:42;;;;;;;;;;;;;;;;;;5093659;28;19931;-74
2022/04/30 01:08:08;;;;;;;;;;;;;;;;;;5091258;28;20372;-75
2022/04/30 01:10:33;;;;;;;;;;;;;;;;;;5091763;28;20010;-75
2022/04/30 01:12:59;;;;;;;;;;;;;;;;;;5092423;28;19923;-75
2022/04/30 01:15:25;;;;;;;;;;;;;;;;;;5092517;28;19977;-75
2022/04/30 01:17:50;;;;;;;;;;;;;;;;;;5092820;28;20468;-75
2022/04/30 01:20:16;;;;;;;;;;;;;;;;;;5092878;28;20018;-75
2022/04/30 01:22:57;;;;;;;;;;;;;;;;;;5092720;28;19935;-75
2022/04/30 01:25:23;;;;;;;;;;;;;;;;;;5092248;28;20285;-75
2022/04/30 01:27:49;;;;;;;;;;;;;;;;;;5091883;28;19916;-75
2022/04/30 01:30:16;;;;;;;;;;;;;;;;;;5092003;28;19915;-75
2022/04/30 01:38:15;;;;;;;;;;;;;;;;;;5091797;28;19920;-74
2022/04/30 01:40:40;;;;;;;;;;;;;;;;;;5094386;28;19920;-74
2022/04/30 01:43:07;;;;;;;;;;;;;;;;;;5094302;28;19923;-74
2022/04/30 01:45:33;;;;;;;;;;;;;;;;;;5094190;28;19986;-74
2022/04/30 01:48:00;;;;;;;;;;;;;;;;;;5094175;28;19962;-74
2022/04/30 01:50:26;;;;;;;;;;;;;;;;;;5094213;28;20289;-74
2022/04/30 01:52:51;;;;;;;;;;;;;;;;;;5093960;28;19920;-74
2022/04/30 01:55:17;;;;;;;;;;;;;;;;;;5093808;28;19927;-74
2022/04/30 01:57:44;;;;;;;;;;;;;;;;;;5093432;28;21249;-74
2022/04/30 02:00:12;;;;;;;;;;;;;;;;;;5094112;28;19920;-74
2022/04/30 02:02:42;;;;;;;;;;;;;;;;;;5094038;28;20374;-74
2022/04/30 02:05:08;;;;;;;;;;;;;;;;;;5093869;28;19924;-74
2022/04/30 02:07:36;;;;;;;;;;;;;;;;;;5092586;28;19924;-75
2022/04/30 02:10:02;;;;;;;;;;;;;;;;;;5093830;28;20011;-75
2022/04/30 02:12:29;;;;;;;;;;;;;;;;;;5093970;28;19912;-75
2022/04/30 02:14:54;;;;;;;;;;;;;;;;;;5091972;28;19942;-75
2022/04/30 02:17:23;;;;;;;;;;;;;;;;;;5093755;28;19920;-74
2022/04/30 02:22:38;;;;;;;;;;;;;;;;;;5093824;28;19916;-75
2022/04/30 02:25:09;;;;;;;;;;;;;;;;;;5092624;28;19916;-75
2022/04/30 02:27:38;;;;;;;;;;;;;;;;;;5093621;28;20015;-75
2022/04/30 02:30:07;;;;;;;;;;;;;;;;;;5091635;28;20019;-75
2022/04/30 02:32:43;;;;;;;;;;;;;;;;;;5093621;28;20354;-75
2022/04/30 02:35:09;;;;;;;;;;;;;;;;;;5093801;28;19919;-75
2022/04/30 02:37:35;;;;;;;;;;;;;;;;;;5093610;28;19916;-75
2022/04/30 02:40:01;;;;;;;;;;;;;;;;;;5093736;28;19973;-75
2022/04/30 02:42:27;;;;;;;;;;;;;;;;;;5093606;28;19959;-74
2022/04/30 02:44:53;;;;;;;;;;;;;;;;;;5093493;28;19916;-75
2022/04/30 02:47:18;;;;;;;;;;;;;;;;;;5093283;28;20373;-75
2022/04/30 02:49:44;;;;;;;;;;;;;;;;;;5094967;28;19959;-75
2022/04/30 02:52:09;;;;;;;;;;;;;;;;;;5097434;28;19974;-75
2022/04/30 02:54:34;;;;;;;;;;;;;;;;;;5096511;28;19927;-75
2022/04/30 02:57:01;;;;;;;;;;;;;;;;;;5097389;28;20275;-75
2022/04/30 03:02:17;;;;;;;;;;;;;;;;;;5094962;28;19916;-75
2022/04/30 03:04:53;;;;;;;;;;;;;;;;;;5095029;28;19955;-75
2022/04/30 03:07:19;;;;;;;;;;;;;;;;;;5096864;28;19924;-75
2022/04/30 03:09:47;;;;;;;;;;;;;;;;;;5097089;28;19923;-75
2022/04/30 03:12:12;;;;;;;;;;;;;;;;;;5096888;28;20409;-75
2022/04/30 03:14:38;;;;;;;;;;;;;;;;;;5097086;28;20002;-76
2022/04/30 03:22:32;;;;;;;;;;;;;;;;;;5096825;28;19923;-76
2022/04/30 03:24:57;;;;;;;;;;;;;;;;;;5096680;28;19916;-76
2022/04/30 03:27:22;;;;;;;;;;;;;;;;;;5095673;28;19946;-75
2022/04/30 03:29:48;;;;;;;;;;;;;;;;;;5095636;28;19916;-75
2022/04/30 03:32:13;;;;;;;;;;;;;;;;;;5094471;28;19923;-75
2022/04/30 03:34:39;;;;;;;;;;;;;;;;;;5096583;28;19923;-75
2022/04/30 03:37:04;;;;;;;;;;;;;;;;;;5096577;28;19928;-75
2022/04/30 03:39:29;;;;;;;;;;;;;;;;;;5096459;28;19978;-75
2022/04/30 03:41:55;;;;;;;;;;;;;;;;;;5096194;28;19978;-76
2022/04/30 03:44:20;;;;;;;;;;;;;;;;;;5096618;28;20004;-75
2022/04/30 03:46:46;;;;;;;;;;;;;;;;;;5095183;28;19920;-76
2022/04/30 03:49:12;;;;;;;;;;;;;;;;;;5096418;28;19916;-76
2022/04/30 03:51:37;;;;;;;;;;;;;;;;;;5096256;28;19927;-75
2022/04/30 03:54:02;;;;;;;;;;;;;;;;;;5077995;28;19916;-76
2022/04/30 03:56:28;;;;;;;;;;;;;;;;;;5096094;28;20057;-75
2022/04/30 03:58:53;;;;;;;;;;;;;;;;;;5095306;28;20282;-76
2022/04/30 04:01:18;;;;;;;;;;;;;;;;;;5095519;28;20289;-76
2022/04/30 04:03:44;;;;;;;;;;;;;;;;;;5096308;28;20358;-76
2022/04/30 04:06:09;;;;;;;;;;;;;;;;;;5093811;28;19924;-76
2022/04/30 04:08:35;;;;;;;;;;;;;;;;;;5096026;28;19920;-76
2022/04/30 04:11:01;;;;;;;;;;;;;;;;;;5096026;28;20003;-76
2022/04/30 04:18:55;;;;;;;;;;;;;;;;;;5095767;28;19923;-76
2022/04/30 04:21:21;;;;;;;;;;;;;;;;;;5095855;28;19916;-75
2022/04/30 04:26:31;;;;;;;;;;;;;;;;;;5095594;28;19972;-75
2022/04/30 04:28:57;;;;;;;;;;;;;;;;;;5094325;28;19916;-76
2022/04/30 04:31:25;;;;;;;;;;;;;;;;;;5094597;28;19916;-76
2022/04/30 04:33:51;;;;;;;;;;;;;;;;;;5095245;28;19916;-76
2022/04/30 04:36:16;;;;;;;;;;;;;;;;;;5095495;28;20020;-76
2022/04/30 04:38:42;;;;;;;;;;;;;;;;;;5095329;28;19916;-77
2022/04/30 04:41:07;;;;;;;;;;;;;;;;;;5094256;28;19920;-76
2022/04/30 04:43:33;;;;;;;;;;;;;;;;;;5094152;28;19924;-76
2022/04/30 04:45:59;;;;;;;;;;;;;;;;;;5095156;28;20014;-76
2022/04/30 04:48:24;;;;;;;;;;;;;;;;;;5095286;28;19969;-76
2022/04/30 04:50:51;;;;;;;;;;;;;;;;;;5095224;28;19920;-76
2022/04/30 04:53:16;;;;;;;;;;;;;;;;;;5093732;28;20568;-76
2022/04/30 04:55:42;;;;;;;;;;;;;;;;;;5092609;28;19920;-77
2022/04/30 04:58:07;;;;;;;;;;;;;;;;;;5092563;28;19916;-77
2022/04/30 05:00:33;;;;;;;;;;;;;;;;;;5092507;28;19939;-76
2022/04/30 05:02:59;;;;;;;;;;;;;;;;;;5091397;28;20282;-77
2022/04/30 05:05:24;;;;;;;;;;;;;;;;;;5091429;28;19912;-77
2022/04/30 05:07:50;;;;;;;;;;;;;;;;;;5092562;28;19924;-77
2022/04/30 05:10:15;;;;;;;;;;;;;;;;;;5092543;28;19920;-76
2022/04/30 05:12:43;;;;;;;;;;;;;;;;;;5092068;28;19916;-77
2022/04/30 05:15:08;;;;;;;;;;;;;;;;;;5073485;28;19916;-77
2022/04/30 05:17:33;;;;;;;;;;;;;;;;;;5092292;28;19923;-76
2022/04/30 05:19:59;;;;;;;;;;;;;;;;;;5092946;28;20360;-77
2022/04/30 05:22:24;;;;;;;;;;;;;;;;;;5092861;28;19981;-77
2022/04/30 05:24:49;;;;;;;;;;;;;;;;;;5092740;28;19920;-77
2022/04/30 05:27:15;;;;;;;;;;;;;;;;;;5092807;28;19926;-77
2022/04/30 05:29:40;;;;;;;;;;;;;;;;;;5094409;28;19923;-77
2022/04/30 05:32:06;;;;;;;;;;;;;;;;;;5092798;28;19916;-76
2022/04/30 05:34:31;;;;;;;;;;;;;;;;;;5093542;28;19961;-77
2022/04/30 05:36:56;;;;;;;;;;;;;;;;;;5094405;28;19915;-77
2022/04/30 05:39:22;;;;;;;;;;;;;;;;;;5094448;28;19916;-77
2022/04/30 05:41:47;;;;;;;;;;;;;;;;;;5094277;28;19961;-76
2022/04/30 05:44:13;;;;;;;;;;;;;;;;;;5094047;28;19939;-77
2022/04/30 05:46:38;;;;;;;;;;;;;;;;;;5094084;28;20270;-76
2022/04/30 05:49:03;;;;;;;;;;;;;;;;;;5093333;28;19920;-76
2022/04/30 05:51:29;;;;;;;;;;;;;;;;;;5092884;28;19916;-76
2022/04/30 05:53:54;;;;;;;;;;;;;;;;;;5093877;28;20332;-76
2022/04/30 05:56:19;;;;;;;;;;;;;;;;;;5093784;28;19924;-77
2022/04/30 05:58:45;;;;;;;;;;;;;;;;;;5093968;28;19916;-77
2022/04/30 06:01:10;;;;;;;;;;;;;;;;;;5094068;28;19919;-77
2022/04/30 06:03:35;;;;;;;;;;;;;;;;;;5093194;28;20387;-77
2022/04/30 06:06:01;;;;;;;;;;;;;;;;;;5094012;28;20367;-76
2022/04/30 06:08:26;;;;;;;;;;;;;;;;;;5094203;28;19920;-75
2022/04/30 06:10:51;;;;;;;;;;;;;;;;;;5094113;28;19916;-77
2022/04/30 06:13:17;;;;;;;;;;;;;;;;;;5093864;28;19920;-76
2022/04/30 06:15:42;;;;;;;;;;;;;;;;;;5092556;28;19916;-77
2022/04/30 06:18:08;;;;;;;;;;;;;;;;;;5093895;28;19913;-77
2022/04/30 06:20:33;;;;;;;;;;;;;;;;;;5093904;28;20020;-77
2022/04/30 06:22:59;;;;;;;;;;;;;;;;;;5094031;28;19923;-76
2022/04/30 06:25:24;;;;;;;;;;;;;;;;;;5096769;28;19916;-77
2022/04/30 06:27:50;;;;;;;;;;;;;;;;;;5098642;28;19955;-76
2022/04/30 06:30:15;;;;;;;;;;;;;;;;;;5097320;28;20007;-77
2022/04/30 06:32:40;;;;;;;;;;;;;;;;;;5098449;28;19917;-77
2022/04/30 06:35:05;;;;;;;;;;;;;;;;;;5097375;28;20395;-77
2022/04/30 06:37:31;;;;;;;;;;;;;;;;;;5098291;28;19916;-77
2022/04/30 06:39:56;;;;;;;;;;;;;;;;;;5098870;28;20255;-77
2022/04/30 06:42:22;;;;;;;;;;;;;;;;;;5097837;28;19923;-77
2022/04/30 06:44:47;;;;;;;;;;;;;;;;;;5097550;28;19916;-77
2022/04/30 06:47:13;;;;;;;;;;;;;;;;;;5097333;28;19921;-77
2022/04/30 06:49:39;;;;;;;;;;;;;;;;;;5097733;28;19917;-77
2022/04/30 06:52:04;;;;;;;;;;;;;;;;;;5096647;28;19920;-77
2022/04/30 06:57:20;;;;;;;;;;;;;;;;;;5097221;28;19916;-77
2022/04/30 06:59:46;;;;;;;;;;;;;;;;;;5096799;28;19987;-77
2022/04/30 07:02:19;;;;;;;;;;;;;;;;;;5097262;28;19916;-77
2022/04/30 07:04:46;;;;;;;;;;;;;;;;;;5097392;28;19942;-76
2022/04/30 07:07:12;;;;;;;;;;;;;;;;;;5096057;28;20342;-76
2022/04/30 07:09:38;;;;;;;;;;;;;;;;;;5097131;28;19962;-76
2022/04/30 07:12:06;;;;;;;;;;;;;;;;;;5096476;28;19923;-78
2022/04/30 07:14:36;;;;;;;;;;;;;;;;;;5097885;28;20050;-78
2022/04/30 07:17:06;;;;;;;;;;;;;;;;;;5096904;28;19916;-78
2022/04/30 07:19:31;;;;;;;;;;;;;;;;;;5096721;28;20394;-78
2022/04/30 07:21:57;;;;;;;;;;;;;;;;;;5095741;28;19920;-77
2022/04/30 07:24:22;;;;;;;;;;;;;;;;;;5096590;28;19959;-76
2022/04/30 07:26:47;;;;;;;;;;;;;;;;;;5095191;28;19927;-76
2022/04/30 07:29:13;;;;;;;;;;;;;;;;;;5096378;28;19939;-77
2022/04/30 07:31:39;;;;;;;;;;;;;;;;;;5096494;28;19955;-76
2022/04/30 07:34:04;;;;;;;;;;;;;;;;;;5097508;28;19916;-78
2022/04/30 07:36:30;;;;;;;;;;;;;;;;;;5095819;28;19920;-78
2022/04/30 07:38:55;;;;;;;;;;;;;;;;;;5097235;28;19915;-78
2022/04/30 07:41:21;;;;;;;;;;;;;;;;;;5089329;28;19916;-77
2022/04/30 07:43:47;;;;;;;;;;;;;;;;;;5078687;28;20346;-76
2022/04/30 07:46:12;;;;;;;;;;;;;;;;;;5095548;28;19970;-77
2022/04/30 07:48:37;;;;;;;;;;;;;;;;;;5096454;28;19923;-77
2022/04/30 07:51:04;;;;;;;;;;;;;;;;;;5096246;28;19923;-77
2022/04/30 07:53:29;;;;;;;;;;;;;;;;;;5096313;28;20019;-77
2022/04/30 07:55:55;;;;;;;;;;;;;;;;;;5096046;28;19959;-76
2022/04/30 07:58:20;;;;;;;;;;;;;;;;;;5094990;28;19927;-77
2022/04/30 08:00:46;;;;;;;;;;;;;;;;;;5096787;28;19923;-77
2022/04/30 08:03:11;;;;;;;;;;;;;;;;;;5093968;28;19994;-78
2022/04/30 08:05:37;;;;;;;;;;;;;;;;;;5102594;28;19915;-78
2022/04/30 08:08:03;;;;;;;;;;;;;;;;;;5083091;28;19921;-78
2022/04/30 08:10:29;;;;;;;;;;;;;;;;;;5073387;28;19970;-77
2022/04/30 08:12:55;;;;;;;;;;;;;;;;;;5073358;28;19923;-78
2022/04/30 08:15:24;;;;;;;;;;;;;;;;;;5073361;28;19921;-77
2022/04/30 08:17:51;;;;;;;;;;;;;;;;;;5074827;28;19921;-76
2022/04/30 08:20:16;;;;;;;;;;;;;;;;;;5075670;28;19916;-78
2022/04/30 08:22:41;;;;;;;;;;;;;;;;;;5075708;28;19917;-78
2022/04/30 08:25:07;;;;;;;;;;;;;;;;;;5075657;28;19919;-77
2022/04/30 08:27:33;;;;;;;;;;;;;;;;;;5075354;28;20003;-77
2022/04/30 08:29:58;;;;;;;;;;;;;;;;;;5075425;28;19916;-77
2022/04/30 08:32:24;;;;;;;;;;;;;;;;;;5072972;28;19917;-77
2022/04/30 08:34:50;;;;;;;;;;;;;;;;;;5075228;28;19923;-78
2022/04/30 08:37:15;;;;;;;;;;;;;;;;;;5073774;28;19924;-78
2022/04/30 08:39:41;;;;;;;;;;;;;;;;;;5075307;28;19942;-77
2022/04/30 08:42:06;;;;;;;;;;;;;;;;;;5075300;28;19917;-77
2022/04/30 08:44:35;;;;;;;;;;;;;;;;;;5075432;28;20449;-76
2022/04/30 08:47:00;;;;;;;;;;;;;;;;;;5074947;28;19930;-77
2022/04/30 08:49:26;;;;;;;;;;;;;;;;;;5075080;28;20378;-77
2022/04/30 08:51:51;;;;;;;;;;;;;;;;;;5074797;28;20007;-77
2022/04/30 08:54:16;;;;;;;;;;;;;;;;;;5074975;28;19916;-77
2022/04/30 08:56:52;;;;;;;;;;;;;;;;;;5074956;28;19921;-77
2022/04/30 08:59:17;;;;;;;;;;;;;;;;;;5074963;28;19999;-77
2022/04/30 09:01:46;;;;;;;;;;;;;;;;;;5074926;28;20446;-79
2022/04/30 09:04:11;;;;;;;;;;;;;;;;;;5074475;28;19951;-78
2022/04/30 09:06:46;;;;;;;;;;;;;;;;;;5074493;28;19982;-77
2022/04/30 09:09:20;;;;;;;;;;;;;;;;;;5074515;28;19920;-78
2022/04/30 09:11:45;;;;;;;;;;;;;;;;;;5074664;28;19951;-77
2022/04/30 09:14:11;;;;;;;;;;;;;;;;;;5077762;28;19954;-77
2022/04/30 09:16:36;;;;;;;;;;;;;;;;;;5094547;28;19923;-78
2022/04/30 09:19:03;;;;;;;;;;;;;;;;;;5094662;28;19916;-77
2022/04/30 09:21:29;;;;;;;;;;;;;;;;;;5094812;28;20008;-78
2022/04/30 09:24:04;;;;;;;;;;;;;;;;;;5094722;28;19955;-78
2022/04/30 09:26:41;;;;;;;;;;;;;;;;;;5094275;28;20358;-78
2022/04/30 09:29:19;;;;;;;;;;;;;;;;;;5094831;28;19977;-77
2022/04/30 09:31:49;;;;;;;;;;;;;;;;;;5094308;28;19920;-77
2022/04/30 09:39:42;;;;;;;;;;;;;;;;;;5094526;28;20002;-77
2022/04/30 09:42:07;;;;;;;;;;;;;;;;;;5094350;28;20041;-77
2022/04/30 09:44:36;;;;;;;;;;;;;;;;;;5094381;28;20292;-77
2022/04/30 09:47:01;;;;;;;;;;;;;;;;;;5094139;28;20347;-77
2022/04/30 09:54:54;;;;;;;;;;;;;;;;;;5092873;28;20010;-78
2022/04/30 09:57:22;;;;;;;;;;;;;;;;;;5094256;28;19962;-77
2022/04/30 09:59:53;;;;;;;;;;;;;;;;;;5093831;28;20281;-77
2022/04/30 10:02:18;;;;;;;;;;;;;;;;;;5092817;28;19923;-77
2022/04/30 10:04:45;;;;;;;;;;;;;;;;;;5094050;28;19916;-77
2022/04/30 10:07:11;;;;;;;;;;;;;;;;;;5093909;28;19993;-76
2022/04/30 10:09:38;;;;;;;;;;;;;;;;;;5094239;28;19923;-76
2022/04/30 10:12:19;;;;;;;;;;;;;;;;;;5094008;28;20412;-78
2022/04/30 10:14:50;;;;;;;;;;;;;;;;;;5092944;28;19916;-78
2022/04/30 10:17:20;;;;;;;;;;;;;;;;;;5094585;28;19968;-80
2022/04/30 10:20:01;;;;;;;;;;;;;;;;;;5094389;28;19916;-77
2022/04/30 10:22:26;;;;;;;;;;;;;;;;;;5094212;28;19923;-77
2022/04/30 10:24:56;;;;;;;;;;;;;;;;;;5093672;28;19912;-78
2022/04/30 10:27:21;;;;;;;;;;;;;;;;;;5093858;28;19920;-77
2022/04/30 10:29:56;;;;;;;;;;;;;;;;;;5093788;28;19961;-77
2022/04/30 10:32:25;;;;;;;;;;;;;;;;;;5113771;28;19981;-78
2022/04/30 10:34:51;;;;;;;;;;;;;;;;;;5114504;28;20384;-77
2022/04/30 10:37:25;;;;;;;;;;;;;;;;;;5112864;28;20401;-77
2022/04/30 10:39:57;;;;;;;;;;;;;;;;;;5114164;28;19923;-77
2022/04/30 10:42:52;;;;;;;;;;;;;;;;;;5114315;28;19916;-77
2022/04/30 10:45:28;;;;;;;;;;;;;;;;;;5104676;28;19976;-77
2022/04/30 10:47:58;;;;;;;;;;;;;;;;;;5113588;27;19919;-77
2022/04/30 10:50:23;;;;;;;;;;;;;;;;;;5112428;28;19915;-78
2022/04/30 10:52:49;;;;;;;;;;;;;;;;;;5112352;28;19916;-78
2022/04/30 10:55:15;;;;;;;;;;;;;;;;;;5113352;28;19919;-79
2022/04/30 10:57:41;;;;;;;;;;;;;;;;;;5113844;28;19963;-77
2022/04/30 11:00:07;;;;;;;;;;;;;;;;;;5113042;28;19973;-78
2022/04/30 11:02:32;;;;;;;;;;;;;;;;;;5093122;28;19920;-79
2022/04/30 11:04:58;;;;;;;;;;;;;;;;;;5093640;28;19920;-77
2022/04/30 11:07:26;;;;;;;;;;;;;;;;;;5076738;28;19920;-77
2022/04/30 11:09:51;;;;;;;;;;;;;;;;;;5073130;28;19924;-77
2022/04/30 11:12:16;;;;;;;;;;;;;;;;;;5076647;28;19916;-78
2022/04/30 11:14:44;;;;;;;;;;;;;;;;;;5075649;28;19948;-77
2022/04/30 11:17:09;;;;;;;;;;;;;;;;;;5076595;28;19923;-77
2022/04/30 11:19:38;;;;;;;;;;;;;;;;;;5076967;28;20294;-78
2022/04/30 11:22:07;;;;;;;;;;;;;;;;;;5076913;28;19916;-77
2022/04/30 11:24:32;;;;;;;;;;;;;;;;;;5075369;28;19923;-77
2022/04/30 11:26:59;;;;;;;;;;;;;;;;;;5076454;28;19921;-78
2022/04/30 11:29:24;;;;;;;;;;;;;;;;;;5076740;28;19916;-77
2022/04/30 11:31:54;;;;;;;;;;;;;;;;;;5076562;28;20353;-80
2022/04/30 11:34:20;;;;;;;;;;;;;;;;;;5095397;28;19923;-77
2022/04/30 11:36:50;;;;;;;;;;;;;;;;;;5096888;28;19916;-77
2022/04/30 11:39:16;;;;;;;;;;;;;;;;;;5096915;28;20014;-78
2022/04/30 11:41:45;;;;;;;;;;;;;;;;;;5096880;28;20007;-78
2022/04/30 11:44:12;;;;;;;;;;;;;;;;;;5078847;28;20005;-77
2022/04/30 11:46:38;;;;;;;;;;;;;;;;;;5096257;28;19997;-77
2022/04/30 11:49:13;;;;;;;;;;;;;;;;;;5096585;28;19916;-77
2022/04/30 11:51:39;;;;;;;;;;;;;;;;;;5096620;28;19916;-77
2022/04/30 11:54:09;;;;;;;;;;;;;;;;;;5096606;28;19916;-77
2022/04/30 11:56:34;;;;;;;;;;;;;;;;;;5096385;28;20463;-77
2022/04/30 11:59:00;;;;;;;;;;;;;;;;;;5095813;28;19995;-79
2022/04/30 12:01:28;;;;;;;;;;;;;;;;;;5097100;28;20007;-78
2022/04/30 12:04:04;;;;;;;;;;;;;;;;;;5097105;28;19923;-77
2022/04/30 12:06:30;;;;;;;;;;;;;;;;;;5096970;28;20354;-77
2022/04/30 12:08:55;;;;;;;;;;;;;;;;;;5096270;28;19922;-77
2022/04/30 12:11:21;;;;;;;;;;;;;;;;;;5096288;28;19923;-77
2022/04/30 12:13:57;;;;;;;;;;;;;;;;;;5094735;28;19951;-80
2022/04/30 12:16:22;;;;;;;;;;;;;;;;;;5075744;28;19923;-78
2022/04/30 12:24:43;;;;;;;;;;;;;;;;;;5078889;28;19916;-78
2022/04/30 12:27:10;;;;;;;;;;;;;;;;;;5079689;28;20266;-77
2022/04/30 12:29:36;;;;;;;;;;;;;;;;;;5083815;28;19916;-79
2022/04/30 12:32:05;;;;;;;;;;;;;;;;;;5119935;28;19915;-79
2022/04/30 12:34:36;;;;;;;;;;;;;;;;;;5124135;28;19920;-79
2022/04/30 12:37:01;;;;;;;;;;;;;;;;;;5117907;28;19916;-78
2022/04/30 12:39:27;;;;;;;;;;;;;;;;;;5119427;28;20014;-78
2022/04/30 12:41:53;;;;;;;;;;;;;;;;;;5119638;28;19959;-78
2022/04/30 12:44:19;;;;;;;;;;;;;;;;;;5119420;28;19922;-78
2022/04/30 12:46:45;;;;;;;;;;;;;;;;;;5117980;28;19920;-78
2022/04/30 12:49:12;;;;;;;;;;;;;;;;;;5117310;28;19919;-78
2022/04/30 12:51:38;;;;;;;;;;;;;;;;;;5119449;28;20481;-79
2022/04/30 12:54:04;;;;;;;;;;;;;;;;;;5120142;28;19911;-77
2022/04/30 12:56:30;;;;;;;;;;;;;;;;;;5099485;28;19920;-78
2022/04/30 12:58:56;;;;;;;;;;;;;;;;;;5115294;28;19960;-78
2022/04/30 13:01:21;;;;;;;;;;;;;;;;;;5116104;28;20010;-78
2022/04/30 13:03:48;;;;;;;;;;;;;;;;;;5105061;28;19987;-78
2022/04/30 13:06:13;;;;;;;;;;;;;;;;;;5074830;28;19916;-78
2022/04/30 13:14:07;;;;;;;;;;;;;;;;;;5081879;28;19916;-77
2022/04/30 13:16:33;;;;;;;;;;;;;;;;;;5085728;28;19986;-77
2022/04/30 13:18:58;;;;;;;;;;;;;;;;;;5110072;28;19912;-77
2022/04/30 13:21:24;;;;;;;;;;;;;;;;;;5095286;28;19916;-79
2022/04/30 13:23:49;;;;;;;;;;;;;;;;;;5094799;28;19916;-77
2022/04/30 13:26:14;;;;;;;;;;;;;;;;;;5097431;28;20303;-78
2022/04/30 13:28:40;;;;;;;;;;;;;;;;;;5099466;28;19920;-79
2022/04/30 13:31:05;;;;;;;;;;;;;;;;;;5102365;28;19916;-79
2022/04/30 13:33:30;;;;;;;;;;;;;;;;;;5098076;28;19924;-78
2022/04/30 13:35:56;;;;;;;;;;;;;;;;;;5098772;28;19938;-77
2022/04/30 13:38:22;;;;;;;;;;;;;;;;;;5097105;28;20327;-78
2022/04/30 13:40:48;;;;;;;;;;;;;;;;;;5097518;28;19916;-78
2022/04/30 13:43:15;;;;;;;;;;;;;;;;;;5097798;28;20281;-78
2022/04/30 13:45:40;;;;;;;;;;;;;;;;;;5096709;28;19920;-78
2022/04/30 13:48:06;;;;;;;;;;;;;;;;;;5096589;28;19921;-78
2022/04/30 13:50:32;;;;;;;;;;;;;;;;;;5096144;28;19916;-77
2022/04/30 13:52:58;;;;;;;;;;;;;;;;;;5096752;28;19916;-78
2022/04/30 13:55:23;;;;;;;;;;;;;;;;;;5096831;28;19920;-78
2022/04/30 13:57:49;;;;;;;;;;;;;;;;;;5096786;28;19922;-77
2022/04/30 14:00:21;;;;;;;;;;;;;;;;;;5094904;28;19944;-77
2022/04/30 14:02:46;;;;;;;;;;;;;;;;;;5094378;28;19916;-77
2022/04/30 14:05:12;;;;;;;;;;;;;;;;;;5094256;28;19916;-78
2022/04/30 14:07:37;;;;;;;;;;;;;;;;;;5093951;28;19967;-77
2022/04/30 14:10:03;;;;;;;;;;;;;;;;;;5093709;28;19969;-79
2022/04/30 14:12:29;;;;;;;;;;;;;;;;;;5093659;28;19923;-77
2022/04/30 14:14:56;;;;;;;;;;;;;;;;;;5093729;28;19918;-77
2022/04/30 14:20:06;;;;;;;;;;;;;;;;;;5092692;28;19916;-75
2022/04/30 14:22:35;;;;;;;;;;;;;;;;;;5081985;28;19923;-76
2022/04/30 14:25:00;;;;;;;;;;;;;;;;;;5083264;28;19952;-80
2022/04/30 14:27:26;;;;;;;;;;;;;;;;;;5075779;28;19977;-79
2022/04/30 14:29:51;;;;;;;;;;;;;;;;;;5082791;28;19973;-79
2022/04/30 14:32:19;;;;;;;;;;;;;;;;;;5081259;28;19923;-80
2022/04/30 14:34:45;;;;;;;;;;;;;;;;;;5082063;28;20266;-81
2022/04/30 14:37:10;;;;;;;;;;;;;;;;;;5084924;28;19927;-79
2022/04/30 14:39:36;;;;;;;;;;;;;;;;;;5077327;28;19984;-79
2022/04/30 14:42:02;;;;;;;;;;;;;;;;;;5095265;28;19920;-79
2022/04/30 14:44:28;;;;;;;;;;;;;;;;;;5078380;28;20011;-79
2022/04/30 14:46:54;;;;;;;;;;;;;;;;;;5086164;28;19925;-78
2022/04/30 14:49:19;;;;;;;;;;;;;;;;;;5084333;28;19916;-80
2022/04/30 14:51:45;;;;;;;;;;;;;;;;;;5093058;28;19917;-79
2022/04/30 14:54:10;;;;;;;;;;;;;;;;;;5088672;28;20070;-78
2022/04/30 14:56:36;;;;;;;;;;;;;;;;;;5083357;28;19927;-79
2022/04/30 14:59:03;;;;;;;;;;;;;;;;;;5073351;28;19916;-77
2022/04/30 15:01:28;;;;;;;;;;;;;;;;;;5074852;28;19928;-85
2022/04/30 15:03:54;;;;;;;;;;;;;;;;;;5091904;28;19923;-87
2022/04/30 15:06:19;;;;;;;;;;;;;;;;;;5084361;28;19924;-85
2022/04/30 15:08:44;;;;;;;;;;;;;;;;;;5080247;28;19916;-86
2022/04/30 15:11:10;;;;;;;;;;;;;;;;;;5088612;28;19930;-84
2022/04/30 15:13:35;;;;;;;;;;;;;;;;;;5081367;28;20010;-89
2022/04/30 15:16:00;;;;;;;;;;;;;;;;;;5080093;28;19920;-84
2022/04/30 15:18:27;;;;;;;;;;;;;;;;;;5095703;28;19921;-86
2022/04/30 15:20:53;;;;;;;;;;;;;;;;;;5086849;28;19917;-85
2022/04/30 15:23:19;;;;;;;;;;;;;;;;;;5092338;28;19920;-82
2022/04/30 15:25:45;;;;;;;;;;;;;;;;;;5084099;28;20554;-85
2022/04/30 15:28:10;;;;;;;;;;;;;;;;;;5083520;28;19977;-89
2022/04/30 15:30:37;;;;;;;;;;;;;;;;;;5072430;28;19939;-85
2022/04/30 15:33:03;;;;;;;;;;;;;;;;;;5086525;28;19916;-86
2022/04/30 15:35:29;;;;;;;;;;;;;;;;;;5085846;28;19927;-76
2022/04/30 15:37:54;;;;;;;;;;;;;;;;;;5087848;28;19915;-77
2022/04/30 15:40:20;;;;;;;;;;;;;;;;;;5077537;28;19956;-78
2022/04/30 15:42:45;;;;;;;;;;;;;;;;;;5077491;28;19987;-79
2022/04/30 15:45:11;;;;;;;;;;;;;;;;;;5078682;28;19967;-80
2022/04/30 15:53:04;;;;;;;;;;;;;;;;;;5080510;28;19971;-78
2022/04/30 15:55:30;;;;;;;;;;;;;;;;;;5078797;28;19920;-79
2022/04/30 15:57:55;;;;;;;;;;;;;;;;;;5079673;28;19917;-79
2022/04/30 16:00:20;;;;;;;;;;;;;;;;;;5081029;28;20330;-77
2022/04/30 16:02:45;;;;;;;;;;;;;;;;;;5097654;28;19916;-77
2022/04/30 16:05:11;;;;;;;;;;;;;;;;;;5097339;28;19916;-77
2022/04/30 16:07:37;;;;;;;;;;;;;;;;;;5097592;28;19931;-77
2022/04/30 16:10:03;;;;;;;;;;;;;;;;;;5097560;28;19916;-77
2022/04/30 16:12:28;;;;;;;;;;;;;;;;;;5095667;28;19916;-77
2022/04/30 16:14:54;;;;;;;;;;;;;;;;;;5096902;28;19916;-77
2022/04/30 16:17:19;;;;;;;;;;;;;;;;;;5096666;28;20090;-77
2022/04/30 16:19:44;;;;;;;;;;;;;;;;;;5097330;28;19970;-77
2022/04/30 16:22:10;;;;;;;;;;;;;;;;;;5096246;28;19920;-81
2022/04/30 16:24:35;;;;;;;;;;;;;;;;;;5098404;28;20363;-79
2022/04/30 16:27:01;;;;;;;;;;;;;;;;;;5097476;28;19920;-79
2022/04/30 16:29:29;;;;;;;;;;;;;;;;;;5096709;28;19916;-79
2022/04/30 16:31:55;;;;;;;;;;;;;;;;;;5097239;28;19984;-78
2022/04/30 16:34:20;;;;;;;;;;;;;;;;;;5097835;28;19927;-79
2022/04/30 16:36:46;;;;;;;;;;;;;;;;;;5079824;28;20286;-79
2022/04/30 16:39:11;;;;;;;;;;;;;;;;;;5097507;28;19934;-79
2022/04/30 16:41:36;;;;;;;;;;;;;;;;;;5097469;28;19916;-79
2022/04/30 16:44:02;;;;;;;;;;;;;;;;;;5096045;28;19916;-79
2022/04/30 16:46:33;;;;;;;;;;;;;;;;;;5097240;28;19916;-78
2022/04/30 16:49:03;;;;;;;;;;;;;;;;;;5096376;28;20285;-79
2022/04/30 16:54:13;;;;;;;;;;;;;;;;;;5093833;28;19916;-78
2022/04/30 16:59:22;;;;;;;;;;;;;;;;;;5098146;28;19922;-78
2022/04/30 17:01:47;;;;;;;;;;;;;;;;;;5097420;28;19955;-79
2022/04/30 17:04:13;;;;;;;;;;;;;;;;;;5115767;28;19961;-77
2022/04/30 17:06:38;;;;;;;;;;;;;;;;;;5117255;28;20303;-79
2022/04/30 17:09:04;;;;;;;;;;;;;;;;;;5116063;28;19916;-80
2022/04/30 17:11:30;;;;;;;;;;;;;;;;;;5119248;28;19916;-80
2022/04/30 17:13:55;;;;;;;;;;;;;;;;;;5118296;28;19923;-79
2022/04/30 17:16:20;;;;;;;;;;;;;;;;;;5099392;28;19945;-79
2022/04/30 17:18:48;;;;;;;;;;;;;;;;;;5095986;28;20378;-80
2022/04/30 17:21:13;;;;;;;;;;;;;;;;;;5097926;28;19982;-80
2022/04/30 17:23:39;;;;;;;;;;;;;;;;;;5100553;28;19924;-81
2022/04/30 17:26:04;;;;;;;;;;;;;;;;;;5098941;28;19920;-77
2022/04/30 17:28:29;;;;;;;;;;;;;;;;;;5095931;28;19920;-77
2022/04/30 17:39:07;;;;;;;;;;;;;;;;;;5098541;28;19927;-80
2022/04/30 17:41:32;;;;;;;;;;;;;;;;;;5097564;28;19916;-79
2022/04/30 17:43:58;;;;;;;;;;;;;;;;;;5095523;28;20019;-75
2022/04/30 17:46:23;;;;;;;;;;;;;;;;;;5093872;28;19924;-75
2022/04/30 17:48:49;;;;;;;;;;;;;;;;;;5092905;28;19916;-76
2022/04/30 17:51:14;;;;;;;;;;;;;;;;;;5092695;28;19963;-77
2022/04/30 17:53:40;;;;;;;;;;;;;;;;;;5093410;28;19962;-77